Amy-c — MKWC7 — position and weather

sailwx.info

Track history (hours):
 
Tides and Currents Weather Stations Pressure Air Temp Water Temp Dewpoint Dewpoint Depression Visibility Wind Speed Wind Dir Waves Ship Positions

Amy-c

Last reported at 2015-May-21 13:04 UTC. Time now 2015-May-23 01:13 UTC.
Position N 38°02' W 000°07'.

Length 137 m; draft 5.5 m.

Type: Cargo ship. MMSI: 235010170.

Date/timePositionNaut miles runAvg speedWind from/ knotsBaromVisibWave heightAir tempDewpointWater temp
2015-May-21 13:04N 38°02' W 000°07'611.5
2015-May-21 12:33N 37°57' W 000°11'1211.7
2015-May-21 11:34N 37°47' W 000°19'1211.7
2015-May-21 10:33N 37°38' W 000°27'1211.8
2015-May-21 09:32N 37°29' W 000°37'1212.0
2015-May-21 08:33N 37°21' W 000°48'1212.1
2015-May-21 07:32N 37°12' W 000°60'6311.6
2015-May-21 02:07N 36°30' W 001°58'610.9
2015-May-21 01:33N 36°26' W 002°04'1410.2
2015-May-21 00:11N 36°21' W 002°20'710.5
2015-May-20 23:30N 36°20' W 002°29'1111.1
2015-May-20 22:32N 36°18' W 002°42'1211.6
2015-May-20 21:30N 36°17' W 002°57'11512.8
2015-May-20 12:33N 35°60' W 005°18'  
2015-May-16 04:08N 25°13' W 016°27'36 9.5
2015-May-16 00:18N 24°39' W 016°43'910.2
2015-May-15 23:23N 24°31' W 016°47'1310.8
2015-May-15 22:09N 24°19' W 016°53'8411.1
2015-May-15 14:33N 23°00' W 017°26'2210.8
2015-May-15 12:34N 22°39' W 017°28'4 0.6
2015-May-15 06:20N 22°36' W 017°25'  
Track history (hours):
 
Tides and Currents Weather Stations Pressure Air Temp Water Temp Dewpoint Dewpoint Depression Visibility Wind Speed Wind Dir Waves Ship Positions

Amy-c

Last reported at 2015-May-21 13:04 UTC. Time now 2015-May-23 01:13 UTC.
Position N 38°02' W 000°07'.

Length 137 m; draft 5.5 m.

Type: Cargo ship. MMSI: 235010170.

Date/timePositionNaut miles runAvg speedWind from/ knotsBaromVisibWave heightAir tempDewpointWater temp
2015-May-21 13:04N 38°02' W 000°07'611.5
2015-May-21 12:33N 37°57' W 000°11'1211.7
2015-May-21 11:34N 37°47' W 000°19'1211.7
2015-May-21 10:33N 37°38' W 000°27'1211.8
2015-May-21 09:32N 37°29' W 000°37'1212.0
2015-May-21 08:33N 37°21' W 000°48'1212.1
2015-May-21 07:32N 37°12' W 000°60'6311.6
2015-May-21 02:07N 36°30' W 001°58'610.9
2015-May-21 01:33N 36°26' W 002°04'1410.2
2015-May-21 00:11N 36°21' W 002°20'710.5
2015-May-20 23:30N 36°20' W 002°29'1111.1
2015-May-20 22:32N 36°18' W 002°42'1211.6
2015-May-20 21:30N 36°17' W 002°57'11512.8
2015-May-20 12:33N 35°60' W 005°18'  
2015-May-16 04:08N 25°13' W 016°27'36 9.5
2015-May-16 00:18N 24°39' W 016°43'910.2
2015-May-15 23:23N 24°31' W 016°47'1310.8
2015-May-15 22:09N 24°19' W 016°53'8411.1
2015-May-15 14:33N 23°00' W 017°26'2210.8
2015-May-15 12:34N 22°39' W 017°28'4 0.6
2015-May-15 06:20N 22°36' W 017°25'  

Dump ship's entire track history